sensor_id;sensor_type;location;lat;lon;timestamp;P1;P2;P0
46126;PMS5003;31859;55.030;-1.550;2022-10-31T00:00:13;11;7;
46126;PMS5003;31859;55.030;-1.550;2022-10-31T00:02:41;5;5;
46126;PMS5003;31859;55.030;-1.550;2022-10-31T00:05:08;6;5;
46126;PMS5003;31859;55.030;-1.550;2022-10-31T00:07:35;4;4;
46126;PMS5003;31859;55.030;-1.550;2022-10-31T00:10:02;7;5;
46126;PMS5003;31859;55.030;-1.550;2022-10-31T00:12:30;7;5;
46126;PMS5003;31859;55.030;-1.550;2022-10-31T00:14:57;5;4;
46126;PMS5003;31859;55.030;-1.550;2022-10-31T00:17:25;7;4;
46126;PMS5003;31859;55.030;-1.550;2022-10-31T00:19:52;5;5;
46126;PMS5003;31859;55.030;-1.550;2022-10-31T00:22:19;7;5;
46126;PMS5003;31859;55.030;-1.550;2022-10-31T00:24:46;7;7;
46126;PMS5003;31859;55.030;-1.550;2022-10-31T00:27:13;5;5;
46126;PMS5003;31859;55.030;-1.550;2022-10-31T00:29:40;5;5;
46126;PMS5003;31859;55.030;-1.550;2022-10-31T00:32:07;6;5;
46126;PMS5003;31859;55.030;-1.550;2022-10-31T00:34:39;5;4;
46126;PMS5003;31859;55.030;-1.550;2022-10-31T00:37:07;7;5;
46126;PMS5003;31859;55.030;-1.550;2022-10-31T00:39:34;8;5;
46126;PMS5003;31859;55.030;-1.550;2022-10-31T00:42:01;5;5;
46126;PMS5003;31859;55.030;-1.550;2022-10-31T00:44:28;7;5;
46126;PMS5003;31859;55.030;-1.550;2022-10-31T00:46:55;12;4;
46126;PMS5003;31859;55.030;-1.550;2022-10-31T00:49:22;8;7;
46126;PMS5003;31859;55.030;-1.550;2022-10-31T00:51:49;7;6;
46126;PMS5003;31859;55.030;-1.550;2022-10-31T00:54:16;6;6;
46126;PMS5003;31859;55.030;-1.550;2022-10-31T00:56:44;15;11;
46126;PMS5003;31859;55.030;-1.550;2022-10-31T00:59:11;8;6;
46126;PMS5003;31859;55.030;-1.550;2022-10-31T01:01:38;6;6;
46126;PMS5003;31859;55.030;-1.550;2022-10-31T01:04:05;6;5;
46126;PMS5003;31859;55.030;-1.550;2022-10-31T01:06:33;6;5;
46126;PMS5003;31859;55.030;-1.550;2022-10-31T01:09:00;8;5;
46126;PMS5003;31859;55.030;-1.550;2022-10-31T01:11:27;8;7;
46126;PMS5003;31859;55.030;-1.550;2022-10-31T01:13:55;7;6;
46126;PMS5003;31859;55.030;-1.550;2022-10-31T01:16:22;6;5;
46126;PMS5003;31859;55.030;-1.550;2022-10-31T01:18:51;8;6;
46126;PMS5003;31859;55.030;-1.550;2022-10-31T01:21:20;6;5;
46126;PMS5003;31859;55.030;-1.550;2022-10-31T01:23:50;7;4;
46126;PMS5003;31859;55.030;-1.550;2022-10-31T01:26:21;4;4;
46126;PMS5003;31859;55.030;-1.550;2022-10-31T01:28:51;7;6;
46126;PMS5003;31859;55.030;-1.550;2022-10-31T01:31:21;5;4;
46126;PMS5003;31859;55.030;-1.550;2022-10-31T01:33:50;6;6;
46126;PMS5003;31859;55.030;-1.550;2022-10-31T01:36:19;7;4;
46126;PMS5003;31859;55.030;-1.550;2022-10-31T01:38:48;8;5;
46126;PMS5003;31859;55.030;-1.550;2022-10-31T01:41:17;7;5;
46126;PMS5003;31859;55.030;-1.550;2022-10-31T01:43:47;7;7;
46126;PMS5003;31859;55.030;-1.550;2022-10-31T01:46:18;9;8;
46126;PMS5003;31859;55.030;-1.550;2022-10-31T01:48:48;7;6;
46126;PMS5003;31859;55.030;-1.550;2022-10-31T01:51:17;7;6;
46126;PMS5003;31859;55.030;-1.550;2022-10-31T01:53:50;5;5;
46126;PMS5003;31859;55.030;-1.550;2022-10-31T01:56:20;12;7;
46126;PMS5003;31859;55.030;-1.550;2022-10-31T01:58:48;4;4;
46126;PMS5003;31859;55.030;-1.550;2022-10-31T02:01:16;6;6;
46126;PMS5003;31859;55.030;-1.550;2022-10-31T02:03:44;12;6;
46126;PMS5003;31859;55.030;-1.550;2022-10-31T02:06:15;10;6;
46126;PMS5003;31859;55.030;-1.550;2022-10-31T02:08:52;6;6;
46126;PMS5003;31859;55.030;-1.550;2022-10-31T02:11:21;17;10;
46126;PMS5003;31859;55.030;-1.550;2022-10-31T02:13:48;5;5;
46126;PMS5003;31859;55.030;-1.550;2022-10-31T02:16:15;5;5;
46126;PMS5003;31859;55.030;-1.550;2022-10-31T02:18:44;8;6;
46126;PMS5003;31859;55.030;-1.550;2022-10-31T02:21:12;6;4;
46126;PMS5003;31859;55.030;-1.550;2022-10-31T02:24:56;10;6;
46126;PMS5003;31859;55.030;-1.550;2022-10-31T02:27:54;7;6;
46126;PMS5003;31859;55.030;-1.550;2022-10-31T02:30:40;5;4;
46126;PMS5003;31859;55.030;-1.550;2022-10-31T02:33:17;6;5;
46126;PMS5003;31859;55.030;-1.550;2022-10-31T02:35:54;8;7;
46126;PMS5003;31859;55.030;-1.550;2022-10-31T02:38:34;7;5;
46126;PMS5003;31859;55.030;-1.550;2022-10-31T02:41:15;5;4;
46126;PMS5003;31859;55.030;-1.550;2022-10-31T02:43:52;7;7;
46126;PMS5003;31859;55.030;-1.550;2022-10-31T02:46:28;6;5;
46126;PMS5003;31859;55.030;-1.550;2022-10-31T02:49:03;6;5;
46126;PMS5003;31859;55.030;-1.550;2022-10-31T02:51:34;5;5;
46126;PMS5003;31859;55.030;-1.550;2022-10-31T02:54:01;5;4;
46126;PMS5003;31859;55.030;-1.550;2022-10-31T02:56:29;4;4;
46126;PMS5003;31859;55.030;-1.550;2022-10-31T02:58:57;5;5;
46126;PMS5003;31859;55.030;-1.550;2022-10-31T03:01:46;6;6;
46126;PMS5003;31859;55.030;-1.550;2022-10-31T03:04:25;8;5;
46126;PMS5003;31859;55.030;-1.550;2022-10-31T03:07:02;6;4;
46126;PMS5003;31859;55.030;-1.550;2022-10-31T03:09:40;8;6;
46126;PMS5003;31859;55.030;-1.550;2022-10-31T03:12:19;8;7;
46126;PMS5003;31859;55.030;-1.550;2022-10-31T03:14:56;7;7;
46126;PMS5003;31859;55.030;-1.550;2022-10-31T03:17:34;4;4;
46126;PMS5003;31859;55.030;-1.550;2022-10-31T03:20:04;7;7;
46126;PMS5003;31859;55.030;-1.550;2022-10-31T03:22:35;6;5;
46126;PMS5003;31859;55.030;-1.550;2022-10-31T03:25:07;11;7;
46126;PMS5003;31859;55.030;-1.550;2022-10-31T03:27:36;10;6;
46126;PMS5003;31859;55.030;-1.550;2022-10-31T03:30:06;11;6;
46126;PMS5003;31859;55.030;-1.550;2022-10-31T03:32:38;5;5;
46126;PMS5003;31859;55.030;-1.550;2022-10-31T03:35:10;6;5;
46126;PMS5003;31859;55.030;-1.550;2022-10-31T03:37:41;7;4;
46126;PMS5003;31859;55.030;-1.550;2022-10-31T03:40:09;8;8;
46126;PMS5003;31859;55.030;-1.550;2022-10-31T03:42:39;11;7;
46126;PMS5003;31859;55.030;-1.550;2022-10-31T03:45:11;7;6;
46126;PMS5003;31859;55.030;-1.550;2022-10-31T03:47:41;11;7;
46126;PMS5003;31859;55.030;-1.550;2022-10-31T03:50:10;6;6;
46126;PMS5003;31859;55.030;-1.550;2022-10-31T03:52:41;5;4;
46126;PMS5003;31859;55.030;-1.550;2022-10-31T03:55:14;12;7;
46126;PMS5003;31859;55.030;-1.550;2022-10-31T03:57:45;8;8;
46126;PMS5003;31859;55.030;-1.550;2022-10-31T04:00:18;9;6;
46126;PMS5003;31859;55.030;-1.550;2022-10-31T04:02:47;16;11;
46126;PMS5003;31859;55.030;-1.550;2022-10-31T04:05:20;8;7;
46126;PMS5003;31859;55.030;-1.550;2022-10-31T04:07:50;7;7;
46126;PMS5003;31859;55.030;-1.550;2022-10-31T04:10:21;12;9;
46126;PMS5003;31859;55.030;-1.550;2022-10-31T04:12:52;7;6;
46126;PMS5003;31859;55.030;-1.550;2022-10-31T04:15:24;9;8;
46126;PMS5003;31859;55.030;-1.550;2022-10-31T04:17:53;13;9;
46126;PMS5003;31859;55.030;-1.550;2022-10-31T04:20:32;8;7;
46126;PMS5003;31859;55.030;-1.550;2022-10-31T04:23:02;10;7;
46126;PMS5003;31859;55.030;-1.550;2022-10-31T04:25:30;9;9;
46126;PMS5003;31859;55.030;-1.550;2022-10-31T04:27:58;13;9;
46126;PMS5003;31859;55.030;-1.550;2022-10-31T04:30:24;8;8;
46126;PMS5003;31859;55.030;-1.550;2022-10-31T04:32:52;5;5;
46126;PMS5003;31859;55.030;-1.550;2022-10-31T04:35:19;9;9;
46126;PMS5003;31859;55.030;-1.550;2022-10-31T04:37:46;9;9;
46126;PMS5003;31859;55.030;-1.550;2022-10-31T04:40:14;15;10;
46126;PMS5003;31859;55.030;-1.550;2022-10-31T04:42:42;13;8;
46126;PMS5003;31859;55.030;-1.550;2022-10-31T04:45:09;11;11;
46126;PMS5003;31859;55.030;-1.550;2022-10-31T04:47:37;10;10;
46126;PMS5003;31859;55.030;-1.550;2022-10-31T04:50:04;10;8;
46126;PMS5003;31859;55.030;-1.550;2022-10-31T04:52:32;12;10;
46126;PMS5003;31859;55.030;-1.550;2022-10-31T04:55:05;17;13;
46126;PMS5003;31859;55.030;-1.550;2022-10-31T04:57:32;16;10;
46126;PMS5003;31859;55.030;-1.550;2022-10-31T05:00:07;19;18;
46126;PMS5003;31859;55.030;-1.550;2022-10-31T05:02:42;14;13;
46126;PMS5003;31859;55.030;-1.550;2022-10-31T05:05:10;13;11;
46126;PMS5003;31859;55.030;-1.550;2022-10-31T05:07:38;10;10;
46126;PMS5003;31859;55.030;-1.550;2022-10-31T05:10:05;12;8;
46126;PMS5003;31859;55.030;-1.550;2022-10-31T05:12:33;12;11;
46126;PMS5003;31859;55.030;-1.550;2022-10-31T05:15:01;12;10;
46126;PMS5003;31859;55.030;-1.550;2022-10-31T05:17:28;19;13;
46126;PMS5003;31859;55.030;-1.550;2022-10-31T05:19:55;12;8;
46126;PMS5003;31859;55.030;-1.550;2022-10-31T05:22:23;5;5;
46126;PMS5003;31859;55.030;-1.550;2022-10-31T05:24:50;14;8;
46126;PMS5003;31859;55.030;-1.550;2022-10-31T05:27:17;16;15;
46126;PMS5003;31859;55.030;-1.550;2022-10-31T05:29:45;10;10;
46126;PMS5003;31859;55.030;-1.550;2022-10-31T05:32:12;13;10;
46126;PMS5003;31859;55.030;-1.550;2022-10-31T05:34:39;12;9;
46126;PMS5003;31859;55.030;-1.550;2022-10-31T05:37:06;27;21;
46126;PMS5003;31859;55.030;-1.550;2022-10-31T05:39:34;18;14;
46126;PMS5003;31859;55.030;-1.550;2022-10-31T05:42:01;18;14;
46126;PMS5003;31859;55.030;-1.550;2022-10-31T05:44:29;20;18;
46126;PMS5003;31859;55.030;-1.550;2022-10-31T05:46:56;35;25;
46126;PMS5003;31859;55.030;-1.550;2022-10-31T05:49:23;21;17;
46126;PMS5003;31859;55.030;-1.550;2022-10-31T05:51:51;17;12;
46126;PMS5003;31859;55.030;-1.550;2022-10-31T05:54:18;26;20;
46126;PMS5003;31859;55.030;-1.550;2022-10-31T05:56:45;22;19;
46126;PMS5003;31859;55.030;-1.550;2022-10-31T05:59:12;27;18;
46126;PMS5003;31859;55.030;-1.550;2022-10-31T06:01:39;24;21;
46126;PMS5003;31859;55.030;-1.550;2022-10-31T06:04:07;19;16;
46126;PMS5003;31859;55.030;-1.550;2022-10-31T06:06:34;24;20;
46126;PMS5003;31859;55.030;-1.550;2022-10-31T06:09:01;27;22;
46126;PMS5003;31859;55.030;-1.550;2022-10-31T06:11:28;19;16;
46126;PMS5003;31859;55.030;-1.550;2022-10-31T06:13:55;28;24;
46126;PMS5003;31859;55.030;-1.550;2022-10-31T06:16:22;25;20;
46126;PMS5003;31859;55.030;-1.550;2022-10-31T06:18:49;32;28;
46126;PMS5003;31859;55.030;-1.550;2022-10-31T06:21:17;18;16;
46126;PMS5003;31859;55.030;-1.550;2022-10-31T06:23:44;27;22;
46126;PMS5003;31859;55.030;-1.550;2022-10-31T06:26:11;25;24;
46126;PMS5003;31859;55.030;-1.550;2022-10-31T06:28:38;26;19;
46126;PMS5003;31859;55.030;-1.550;2022-10-31T06:31:06;27;22;
46126;PMS5003;31859;55.030;-1.550;2022-10-31T06:33:33;31;25;
46126;PMS5003;31859;55.030;-1.550;2022-10-31T06:36:01;19;19;
46126;PMS5003;31859;55.030;-1.550;2022-10-31T06:38:28;25;24;
46126;PMS5003;31859;55.030;-1.550;2022-10-31T06:40:56;22;17;
46126;PMS5003;31859;55.030;-1.550;2022-10-31T06:43:23;28;25;
46126;PMS5003;31859;55.030;-1.550;2022-10-31T06:45:50;19;15;
46126;PMS5003;31859;55.030;-1.550;2022-10-31T06:48:18;26;22;
46126;PMS5003;31859;55.030;-1.550;2022-10-31T06:50:45;21;17;
46126;PMS5003;31859;55.030;-1.550;2022-10-31T06:53:13;29;22;
46126;PMS5003;31859;55.030;-1.550;2022-10-31T06:55:40;31;25;
46126;PMS5003;31859;55.030;-1.550;2022-10-31T06:58:08;32;28;
46126;PMS5003;31859;55.030;-1.550;2022-10-31T07:00:37;25;21;
46126;PMS5003;31859;55.030;-1.550;2022-10-31T07:03:05;29;27;
46126;PMS5003;31859;55.030;-1.550;2022-10-31T07:05:33;27;27;
46126;PMS5003;31859;55.030;-1.550;2022-10-31T07:08:02;25;24;
46126;PMS5003;31859;55.030;-1.550;2022-10-31T07:10:33;23;18;
46126;PMS5003;31859;55.030;-1.550;2022-10-31T07:13:02;24;20;
46126;PMS5003;31859;55.030;-1.550;2022-10-31T07:15:33;26;18;
46126;PMS5003;31859;55.030;-1.550;2022-10-31T07:18:01;26;23;
46126;PMS5003;31859;55.030;-1.550;2022-10-31T07:20:29;19;19;
46126;PMS5003;31859;55.030;-1.550;2022-10-31T07:22:57;29;26;
46126;PMS5003;31859;55.030;-1.550;2022-10-31T07:25:25;28;25;
46126;PMS5003;31859;55.030;-1.550;2022-10-31T07:27:52;24;19;
46126;PMS5003;31859;55.030;-1.550;2022-10-31T07:30:20;27;18;
46126;PMS5003;31859;55.030;-1.550;2022-10-31T07:32:52;26;25;
46126;PMS5003;31859;55.030;-1.550;2022-10-31T07:35:20;35;32;
46126;PMS5003;31859;55.030;-1.550;2022-10-31T07:37:48;28;25;
46126;PMS5003;31859;55.030;-1.550;2022-10-31T07:40:21;26;21;
46126;PMS5003;31859;55.030;-1.550;2022-10-31T07:42:50;21;16;
46126;PMS5003;31859;55.030;-1.550;2022-10-31T07:45:19;19;19;
46126;PMS5003;31859;55.030;-1.550;2022-10-31T07:47:48;22;21;
46126;PMS5003;31859;55.030;-1.550;2022-10-31T07:50:16;25;18;
46126;PMS5003;31859;55.030;-1.550;2022-10-31T07:52:44;26;21;
46126;PMS5003;31859;55.030;-1.550;2022-10-31T07:55:12;28;25;
46126;PMS5003;31859;55.030;-1.550;2022-10-31T07:57:40;32;28;
46126;PMS5003;31859;55.030;-1.550;2022-10-31T08:00:08;31;27;
46126;PMS5003;31859;55.030;-1.550;2022-10-31T08:02:36;21;21;
46126;PMS5003;31859;55.030;-1.550;2022-10-31T08:05:04;18;17;
46126;PMS5003;31859;55.030;-1.550;2022-10-31T08:07:35;23;17;
46126;PMS5003;31859;55.030;-1.550;2022-10-31T08:10:03;22;21;
46126;PMS5003;31859;55.030;-1.550;2022-10-31T08:12:32;31;25;
46126;PMS5003;31859;55.030;-1.550;2022-10-31T08:14:59;21;21;
46126;PMS5003;31859;55.030;-1.550;2022-10-31T08:17:26;26;26;
46126;PMS5003;31859;55.030;-1.550;2022-10-31T08:19:54;24;19;
46126;PMS5003;31859;55.030;-1.550;2022-10-31T08:22:21;29;25;
46126;PMS5003;31859;55.030;-1.550;2022-10-31T08:24:48;24;19;
46126;PMS5003;31859;55.030;-1.550;2022-10-31T08:27:16;27;23;
46126;PMS5003;31859;55.030;-1.550;2022-10-31T08:29:43;27;22;
46126;PMS5003;31859;55.030;-1.550;2022-10-31T08:32:10;26;19;
46126;PMS5003;31859;55.030;-1.550;2022-10-31T08:34:38;23;23;
46126;PMS5003;31859;55.030;-1.550;2022-10-31T08:37:05;20;16;
46126;PMS5003;31859;55.030;-1.550;2022-10-31T08:39:32;23;20;
46126;PMS5003;31859;55.030;-1.550;2022-10-31T08:41:59;28;22;
46126;PMS5003;31859;55.030;-1.550;2022-10-31T08:44:27;24;21;
46126;PMS5003;31859;55.030;-1.550;2022-10-31T08:46:54;22;18;
46126;PMS5003;31859;55.030;-1.550;2022-10-31T08:49:21;25;21;
46126;PMS5003;31859;55.030;-1.550;2022-10-31T08:51:48;18;17;
46126;PMS5003;31859;55.030;-1.550;2022-10-31T08:54:15;23;20;
46126;PMS5003;31859;55.030;-1.550;2022-10-31T08:56:42;20;17;
46126;PMS5003;31859;55.030;-1.550;2022-10-31T08:59:10;14;12;
46126;PMS5003;31859;55.030;-1.550;2022-10-31T09:01:37;25;22;
46126;PMS5003;31859;55.030;-1.550;2022-10-31T09:04:05;24;20;
46126;PMS5003;31859;55.030;-1.550;2022-10-31T09:06:32;19;16;
46126;PMS5003;31859;55.030;-1.550;2022-10-31T09:08:59;19;14;
46126;PMS5003;31859;55.030;-1.550;2022-10-31T09:11:26;22;20;
46126;PMS5003;31859;55.030;-1.550;2022-10-31T09:13:55;15;13;
46126;PMS5003;31859;55.030;-1.550;2022-10-31T09:16:23;17;15;
46126;PMS5003;31859;55.030;-1.550;2022-10-31T09:18:50;16;13;
46126;PMS5003;31859;55.030;-1.550;2022-10-31T09:21:19;25;19;
46126;PMS5003;31859;55.030;-1.550;2022-10-31T09:23:46;15;15;
46126;PMS5003;31859;55.030;-1.550;2022-10-31T09:26:13;16;13;
46126;PMS5003;31859;55.030;-1.550;2022-10-31T09:28:40;19;15;
46126;PMS5003;31859;55.030;-1.550;2022-10-31T09:31:08;29;23;
46126;PMS5003;31859;55.030;-1.550;2022-10-31T09:33:35;20;16;
46126;PMS5003;31859;55.030;-1.550;2022-10-31T09:36:02;22;17;
46126;PMS5003;31859;55.030;-1.550;2022-10-31T09:38:30;20;16;
46126;PMS5003;31859;55.030;-1.550;2022-10-31T09:41:01;20;18;
46126;PMS5003;31859;55.030;-1.550;2022-10-31T09:43:37;15;13;
46126;PMS5003;31859;55.030;-1.550;2022-10-31T09:46:15;25;23;
46126;PMS5003;31859;55.030;-1.550;2022-10-31T09:48:55;24;22;
46126;PMS5003;31859;55.030;-1.550;2022-10-31T09:51:55;18;13;
46126;PMS5003;31859;55.030;-1.550;2022-10-31T09:54:28;23;15;
46126;PMS5003;31859;55.030;-1.550;2022-10-31T09:57:01;29;24;
46126;PMS5003;31859;55.030;-1.550;2022-10-31T09:59:30;15;14;
46126;PMS5003;31859;55.030;-1.550;2022-10-31T10:02:01;23;20;
46126;PMS5003;31859;55.030;-1.550;2022-10-31T10:04:34;23;16;
46126;PMS5003;31859;55.030;-1.550;2022-10-31T10:07:20;22;17;
46126;PMS5003;31859;55.030;-1.550;2022-10-31T10:09:52;21;18;
46126;PMS5003;31859;55.030;-1.550;2022-10-31T10:12:23;27;19;
46126;PMS5003;31859;55.030;-1.550;2022-10-31T10:15:09;20;20;
46126;PMS5003;31859;55.030;-1.550;2022-10-31T10:17:54;25;23;
46126;PMS5003;31859;55.030;-1.550;2022-10-31T10:20:31;21;17;
46126;PMS5003;31859;55.030;-1.550;2022-10-31T10:23:22;13;10;
46126;PMS5003;31859;55.030;-1.550;2022-10-31T10:26:01;17;16;
46126;PMS5003;31859;55.030;-1.550;2022-10-31T10:28:37;16;13;
46126;PMS5003;31859;55.030;-1.550;2022-10-31T10:31:08;15;10;
46126;PMS5003;31859;55.030;-1.550;2022-10-31T10:33:41;16;13;
46126;PMS5003;31859;55.030;-1.550;2022-10-31T10:36:16;25;20;
46126;PMS5003;31859;55.030;-1.550;2022-10-31T10:38:53;13;12;
46126;PMS5003;31859;55.030;-1.550;2022-10-31T10:41:23;14;12;
46126;PMS5003;31859;55.030;-1.550;2022-10-31T10:43:56;17;12;
46126;PMS5003;31859;55.030;-1.550;2022-10-31T10:46:24;12;12;
46126;PMS5003;31859;55.030;-1.550;2022-10-31T10:49:00;22;19;
46126;PMS5003;31859;55.030;-1.550;2022-10-31T10:51:39;19;14;
46126;PMS5003;31859;55.030;-1.550;2022-10-31T10:54:15;17;15;
46126;PMS5003;31859;55.030;-1.550;2022-10-31T10:57:04;16;13;
46126;PMS5003;31859;55.030;-1.550;2022-10-31T10:59:41;12;9;
46126;PMS5003;31859;55.030;-1.550;2022-10-31T11:02:15;15;11;
46126;PMS5003;31859;55.030;-1.550;2022-10-31T11:04:45;15;12;
46126;PMS5003;31859;55.030;-1.550;2022-10-31T11:07:16;18;16;
46126;PMS5003;31859;55.030;-1.550;2022-10-31T11:09:43;14;12;
46126;PMS5003;31859;55.030;-1.550;2022-10-31T11:12:14;17;13;
46126;PMS5003;31859;55.030;-1.550;2022-10-31T11:14:47;12;10;
46126;PMS5003;31859;55.030;-1.550;2022-10-31T11:17:20;13;10;
46126;PMS5003;31859;55.030;-1.550;2022-10-31T11:20:22;12;11;
46126;PMS5003;31859;55.030;-1.550;2022-10-31T11:23:00;16;12;
46126;PMS5003;31859;55.030;-1.550;2022-10-31T11:25:29;19;12;
46126;PMS5003;31859;55.030;-1.550;2022-10-31T11:27:59;14;10;
46126;PMS5003;31859;55.030;-1.550;2022-10-31T11:30:27;18;16;
46126;PMS5003;31859;55.030;-1.550;2022-10-31T11:32:56;17;13;
46126;PMS5003;31859;55.030;-1.550;2022-10-31T11:35:24;18;16;
46126;PMS5003;31859;55.030;-1.550;2022-10-31T11:37:53;14;11;
46126;PMS5003;31859;55.030;-1.550;2022-10-31T11:40:24;13;12;
46126;PMS5003;31859;55.030;-1.550;2022-10-31T11:42:54;19;13;
46126;PMS5003;31859;55.030;-1.550;2022-10-31T11:45:28;17;13;
46126;PMS5003;31859;55.030;-1.550;2022-10-31T11:47:58;22;17;
46126;PMS5003;31859;55.030;-1.550;2022-10-31T11:50:29;14;11;
46126;PMS5003;31859;55.030;-1.550;2022-10-31T11:53:00;14;9;
46126;PMS5003;31859;55.030;-1.550;2022-10-31T11:55:31;9;9;
46126;PMS5003;31859;55.030;-1.550;2022-10-31T11:57:59;13;9;
46126;PMS5003;31859;55.030;-1.550;2022-10-31T12:00:28;10;9;
46126;PMS5003;31859;55.030;-1.550;2022-10-31T12:03:04;13;10;
46126;PMS5003;31859;55.030;-1.550;2022-10-31T12:05:40;13;10;
46126;PMS5003;31859;55.030;-1.550;2022-10-31T12:08:15;10;9;
46126;PMS5003;31859;55.030;-1.550;2022-10-31T12:10:46;12;10;
46126;PMS5003;31859;55.030;-1.550;2022-10-31T12:13:26;9;9;
46126;PMS5003;31859;55.030;-1.550;2022-10-31T12:16:02;10;9;
46126;PMS5003;31859;55.030;-1.550;2022-10-31T12:18:43;7;7;
46126;PMS5003;31859;55.030;-1.550;2022-10-31T12:21:27;9;9;
46126;PMS5003;31859;55.030;-1.550;2022-10-31T12:24:07;13;10;
46126;PMS5003;31859;55.030;-1.550;2022-10-31T12:26:47;9;8;
46126;PMS5003;31859;55.030;-1.550;2022-10-31T12:29:25;12;11;
46126;PMS5003;31859;55.030;-1.550;2022-10-31T12:32:08;9;9;
46126;PMS5003;31859;55.030;-1.550;2022-10-31T12:34:54;10;9;
46126;PMS5003;31859;55.030;-1.550;2022-10-31T12:37:37;15;10;
46126;PMS5003;31859;55.030;-1.550;2022-10-31T12:40:25;12;10;
46126;PMS5003;31859;55.030;-1.550;2022-10-31T12:43:08;13;9;
46126;PMS5003;31859;55.030;-1.550;2022-10-31T12:45:52;8;8;
46126;PMS5003;31859;55.030;-1.550;2022-10-31T12:48:29;16;11;
46126;PMS5003;31859;55.030;-1.550;2022-10-31T12:51:06;9;8;
46126;PMS5003;31859;55.030;-1.550;2022-10-31T12:53:44;8;8;
46126;PMS5003;31859;55.030;-1.550;2022-10-31T12:56:25;11;9;
46126;PMS5003;31859;55.030;-1.550;2022-10-31T12:59:07;9;8;
46126;PMS5003;31859;55.030;-1.550;2022-10-31T13:01:42;10;9;
46126;PMS5003;31859;55.030;-1.550;2022-10-31T13:04:16;15;13;
46126;PMS5003;31859;55.030;-1.550;2022-10-31T13:06:49;8;7;
46126;PMS5003;31859;55.030;-1.550;2022-10-31T13:09:22;12;10;
46126;PMS5003;31859;55.030;-1.550;2022-10-31T13:11:58;10;8;
46126;PMS5003;31859;55.030;-1.550;2022-10-31T13:14:29;11;9;
46126;PMS5003;31859;55.030;-1.550;2022-10-31T13:17:01;11;9;
46126;PMS5003;31859;55.030;-1.550;2022-10-31T13:19:31;15;8;
46126;PMS5003;31859;55.030;-1.550;2022-10-31T13:22:06;8;8;
46126;PMS5003;31859;55.030;-1.550;2022-10-31T13:24:38;12;11;
46126;PMS5003;31859;55.030;-1.550;2022-10-31T13:27:11;11;8;
46126;PMS5003;31859;55.030;-1.550;2022-10-31T13:29:47;13;11;
46126;PMS5003;31859;55.030;-1.550;2022-10-31T13:32:24;14;9;
46126;PMS5003;31859;55.030;-1.550;2022-10-31T13:34:55;8;6;
46126;PMS5003;31859;55.030;-1.550;2022-10-31T13:37:26;14;9;
46126;PMS5003;31859;55.030;-1.550;2022-10-31T13:40:03;9;9;
46126;PMS5003;31859;55.030;-1.550;2022-10-31T13:42:41;15;9;
46126;PMS5003;31859;55.030;-1.550;2022-10-31T13:45:19;10;8;
46126;PMS5003;31859;55.030;-1.550;2022-10-31T13:47:56;7;7;
46126;PMS5003;31859;55.030;-1.550;2022-10-31T13:50:26;7;7;
46126;PMS5003;31859;55.030;-1.550;2022-10-31T13:53:11;9;7;
46126;PMS5003;31859;55.030;-1.550;2022-10-31T13:55:41;11;9;
46126;PMS5003;31859;55.030;-1.550;2022-10-31T13:58:26;11;7;
46126;PMS5003;31859;55.030;-1.550;2022-10-31T14:00:59;10;6;
46126;PMS5003;31859;55.030;-1.550;2022-10-31T14:03:39;12;9;
46126;PMS5003;31859;55.030;-1.550;2022-10-31T14:06:08;6;6;
46126;PMS5003;31859;55.030;-1.550;2022-10-31T14:08:39;8;7;
46126;PMS5003;31859;55.030;-1.550;2022-10-31T14:11:22;7;7;
46126;PMS5003;31859;55.030;-1.550;2022-10-31T14:13:53;8;7;
46126;PMS5003;31859;55.030;-1.550;2022-10-31T14:16:24;12;9;
46126;PMS5003;31859;55.030;-1.550;2022-10-31T14:18:57;17;14;
46126;PMS5003;31859;55.030;-1.550;2022-10-31T14:21:27;11;7;
46126;PMS5003;31859;55.030;-1.550;2022-10-31T14:23:56;9;6;
46126;PMS5003;31859;55.030;-1.550;2022-10-31T14:26:32;10;8;
46126;PMS5003;31859;55.030;-1.550;2022-10-31T14:29:20;8;7;
46126;PMS5003;31859;55.030;-1.550;2022-10-31T14:31:52;9;5;
46126;PMS5003;31859;55.030;-1.550;2022-10-31T14:34:23;9;6;
46126;PMS5003;31859;55.030;-1.550;2022-10-31T14:37:46;9;5;
46126;PMS5003;31859;55.030;-1.550;2022-10-31T14:40:34;11;8;
46126;PMS5003;31859;55.030;-1.550;2022-10-31T14:43:24;8;6;
46126;PMS5003;31859;55.030;-1.550;2022-10-31T14:46:00;7;7;
46126;PMS5003;31859;55.030;-1.550;2022-10-31T14:48:37;6;4;
46126;PMS5003;31859;55.030;-1.550;2022-10-31T14:51:19;10;7;
46126;PMS5003;31859;55.030;-1.550;2022-10-31T14:53:53;15;14;
46126;PMS5003;31859;55.030;-1.550;2022-10-31T14:56:23;9;8;
46126;PMS5003;31859;55.030;-1.550;2022-10-31T14:58:53;10;7;
46126;PMS5003;31859;55.030;-1.550;2022-10-31T15:01:24;8;7;
46126;PMS5003;31859;55.030;-1.550;2022-10-31T15:03:53;8;7;
46126;PMS5003;31859;55.030;-1.550;2022-10-31T15:06:27;8;6;
46126;PMS5003;31859;55.030;-1.550;2022-10-31T15:09:05;6;6;
46126;PMS5003;31859;55.030;-1.550;2022-10-31T15:11:36;8;8;
46126;PMS5003;31859;55.030;-1.550;2022-10-31T15:14:05;13;13;
46126;PMS5003;31859;55.030;-1.550;2022-10-31T15:16:48;8;8;
46126;PMS5003;31859;55.030;-1.550;2022-10-31T15:19:18;11;8;
46126;PMS5003;31859;55.030;-1.550;2022-10-31T15:21:50;8;7;
46126;PMS5003;31859;55.030;-1.550;2022-10-31T15:24:19;7;7;
46126;PMS5003;31859;55.030;-1.550;2022-10-31T15:26:50;9;7;
46126;PMS5003;31859;55.030;-1.550;2022-10-31T15:29:20;13;9;
46126;PMS5003;31859;55.030;-1.550;2022-10-31T15:31:49;11;9;
46126;PMS5003;31859;55.030;-1.550;2022-10-31T15:34:20;8;8;
46126;PMS5003;31859;55.030;-1.550;2022-10-31T15:36:49;13;7;
46126;PMS5003;31859;55.030;-1.550;2022-10-31T15:39:16;7;6;
46126;PMS5003;31859;55.030;-1.550;2022-10-31T15:41:48;7;7;
46126;PMS5003;31859;55.030;-1.550;2022-10-31T15:44:20;12;7;
46126;PMS5003;31859;55.030;-1.550;2022-10-31T15:46:52;10;6;
46126;PMS5003;31859;55.030;-1.550;2022-10-31T15:49:26;7;6;
46126;PMS5003;31859;55.030;-1.550;2022-10-31T15:52:01;8;5;
46126;PMS5003;31859;55.030;-1.550;2022-10-31T15:54:31;6;4;
46126;PMS5003;31859;55.030;-1.550;2022-10-31T15:56:59;8;7;
46126;PMS5003;31859;55.030;-1.550;2022-10-31T15:59:27;8;7;
46126;PMS5003;31859;55.030;-1.550;2022-10-31T16:01:58;5;4;
46126;PMS5003;31859;55.030;-1.550;2022-10-31T16:04:27;10;7;
46126;PMS5003;31859;55.030;-1.550;2022-10-31T16:06:59;7;7;
46126;PMS5003;31859;55.030;-1.550;2022-10-31T16:09:27;11;5;
46126;PMS5003;31859;55.030;-1.550;2022-10-31T16:11:56;6;6;
46126;PMS5003;31859;55.030;-1.550;2022-10-31T16:14:24;10;7;
46126;PMS5003;31859;55.030;-1.550;2022-10-31T16:16:55;13;13;
46126;PMS5003;31859;55.030;-1.550;2022-10-31T16:19:25;4;4;
46126;PMS5003;31859;55.030;-1.550;2022-10-31T16:21:55;5;5;
46126;PMS5003;31859;55.030;-1.550;2022-10-31T16:24:31;7;6;
46126;PMS5003;31859;55.030;-1.550;2022-10-31T16:27:02;9;5;
46126;PMS5003;31859;55.030;-1.550;2022-10-31T16:29:33;11;8;
46126;PMS5003;31859;55.030;-1.550;2022-10-31T16:32:04;6;6;
46126;PMS5003;31859;55.030;-1.550;2022-10-31T16:34:56;11;7;
46126;PMS5003;31859;55.030;-1.550;2022-10-31T16:37:24;7;7;
46126;PMS5003;31859;55.030;-1.550;2022-10-31T16:39:51;11;7;
46126;PMS5003;31859;55.030;-1.550;2022-10-31T16:42:19;12;8;
46126;PMS5003;31859;55.030;-1.550;2022-10-31T16:44:46;5;4;